Assonet, Massachusetts
Current Conditions -  °F | °C
As of 6:17 AM on Saturday 20 Dec 2014 (Local Time) from KTAN Reporting Station
Overcast Overcast  
Wind Chill: -4°   Ceiling: 2900
Heat Index: -1°   Visibility: 10mi
Dew Point: -6°   Wind: 5mph
Humidity: 72%   Direction: 320°NW
Pressure: 30.22"   Gusts: NA
Location:  41.8°N, 71.07°W
Report Text: KTAN 201117Z AUTO 32004KT 10SM OVC029 M01/M06 A3022 RMK AO2 T10111056
Loading
Personal Weather Stations






























Interactive Weather Map New forecast layout! Learn more

10-Day Weather Forecast

Advertisements
Track Severe Weather on mobile